createdAt,value
2019-06-15T00:00:08.882Z,992.30
2019-06-15T00:01:08.864Z,992.28
2019-06-15T00:02:08.849Z,992.22
2019-06-15T00:03:08.874Z,992.19
2019-06-15T00:04:08.845Z,992.13
2019-06-15T00:05:08.829Z,992.14
2019-06-15T00:06:08.808Z,992.12
2019-06-15T00:07:08.821Z,992.09
2019-06-15T00:08:08.784Z,992.04
2019-06-15T00:09:08.782Z,992.03
2019-06-15T00:10:08.774Z,991.99
2019-06-15T00:11:08.787Z,991.97
2019-06-15T00:12:08.769Z,991.94
2019-06-15T00:13:08.731Z,991.93
2019-06-15T00:14:08.725Z,991.89
2019-06-15T00:15:08.729Z,991.90
2019-06-15T00:16:08.703Z,991.93
2019-06-15T00:17:08.730Z,991.93
2019-06-15T00:18:08.700Z,991.93
2019-06-15T00:19:08.685Z,991.93
2019-06-15T00:20:08.685Z,991.93
2019-06-15T00:21:08.641Z,991.93
2019-06-15T00:22:08.685Z,991.94
2019-06-15T00:23:08.613Z,991.90
2019-06-15T00:24:08.623Z,991.86
2019-06-15T00:25:08.589Z,991.83
2019-06-15T00:26:08.626Z,991.76
2019-06-15T00:27:08.572Z,991.73
2019-06-15T00:28:08.559Z,991.77
2019-06-15T00:29:08.552Z,991.76
2019-06-15T00:30:08.542Z,991.74
2019-06-15T00:31:08.552Z,991.69
2019-06-15T00:32:08.538Z,991.66
2019-06-15T00:33:08.501Z,991.63
2019-06-15T00:34:08.497Z,991.59
2019-06-15T00:35:08.478Z,991.59
2019-06-15T00:36:08.480Z,991.53
2019-06-15T00:37:08.483Z,991.50
2019-06-15T00:38:08.447Z,991.50
2019-06-15T00:39:08.439Z,991.50
2019-06-15T00:40:08.448Z,991.48
2019-06-15T00:41:08.422Z,991.45
2019-06-15T00:42:08.454Z,991.37
2019-06-15T00:43:08.387Z,991.36
2019-06-15T00:44:08.379Z,991.32
2019-06-15T00:45:08.373Z,991.32
2019-06-15T00:46:08.373Z,991.30
2019-06-15T00:47:08.366Z,991.28
2019-06-15T00:48:08.355Z,991.23
2019-06-15T00:49:08.373Z,991.24
2019-06-15T00:50:08.319Z,991.21
2019-06-15T00:51:08.304Z,991.12
2019-06-15T00:52:08.285Z,991.11
2019-06-15T00:53:08.300Z,991.07
2019-06-15T00:54:08.295Z,991.11
2019-06-15T00:55:08.257Z,991.14
2019-06-15T00:56:08.259Z,991.12
2019-06-15T00:57:08.239Z,991.08
2019-06-15T00:58:08.251Z,991.06
2019-06-15T00:59:08.221Z,991.06
2019-06-15T01:00:08.200Z,991.05
2019-06-15T01:01:08.217Z,991.05
2019-06-15T01:02:08.192Z,991.05
2019-06-15T01:03:08.202Z,991.06
2019-06-15T01:04:08.207Z,991.04
2019-06-15T01:05:08.146Z,990.96
2019-06-15T01:06:08.145Z,991.02
2019-06-15T01:07:08.129Z,991.03
2019-06-15T01:08:08.112Z,991.03
2019-06-15T01:09:08.125Z,990.99
2019-06-15T01:10:08.085Z,991.04
2019-06-15T01:11:08.091Z,990.95
2019-06-15T01:12:08.075Z,990.91
2019-06-15T01:13:08.073Z,990.85
2019-06-15T01:14:08.042Z,990.80
2019-06-15T01:15:08.033Z,990.73
2019-06-15T01:16:08.021Z,990.67
2019-06-15T01:17:08.020Z,990.71
2019-06-15T01:18:08.024Z,990.59
2019-06-15T01:19:07.987Z,990.54
2019-06-15T01:20:08.000Z,990.53
2019-06-15T01:21:07.961Z,990.55
2019-06-15T01:22:07.975Z,990.54
2019-06-15T01:23:07.939Z,990.49
2019-06-15T01:24:07.950Z,990.46
2019-06-15T01:25:07.920Z,990.49
2019-06-15T01:26:07.902Z,990.50
2019-06-15T01:27:07.911Z,990.52
2019-06-15T01:28:07.888Z,990.45
2019-06-15T01:29:07.885Z,990.50
2019-06-15T01:30:07.881Z,990.41
2019-06-15T01:31:07.876Z,990.41
2019-06-15T01:32:07.844Z,990.36
2019-06-15T01:33:07.826Z,990.37
2019-06-15T01:34:07.834Z,990.39
2019-06-15T01:35:07.822Z,990.36
2019-06-15T01:36:07.794Z,990.41
2019-06-15T01:37:07.785Z,990.36
2019-06-15T01:38:07.777Z,990.28
2019-06-15T01:39:07.781Z,990.27
2019-06-15T01:40:07.787Z,990.23
2019-06-15T01:41:07.733Z,990.22
2019-06-15T01:42:07.748Z,990.24
2019-06-15T01:43:07.724Z,990.30
2019-06-15T01:44:07.761Z,990.34
2019-06-15T01:45:07.686Z,990.36
2019-06-15T01:46:07.719Z,990.35
2019-06-15T01:47:07.717Z,990.39
2019-06-15T01:48:07.658Z,990.41
2019-06-15T01:49:07.683Z,990.37
2019-06-15T01:50:07.645Z,990.36
2019-06-15T01:51:07.659Z,990.31
2019-06-15T01:52:07.630Z,990.28
2019-06-15T01:53:07.635Z,990.28
2019-06-15T01:54:07.615Z,990.31
2019-06-15T01:55:19.921Z,990.28
2019-06-15T01:56:08.591Z,990.27
2019-06-15T01:57:07.589Z,990.22
2019-06-15T01:58:07.548Z,990.13
2019-06-15T01:59:07.536Z,990.07
2019-06-15T02:00:07.532Z,990.06
2019-06-15T02:01:07.540Z,990.01
2019-06-15T02:02:07.495Z,989.98
2019-06-15T02:03:07.481Z,989.96
2019-06-15T02:04:07.531Z,989.95
2019-06-15T02:05:07.487Z,989.97
2019-06-15T02:06:07.521Z,989.95
2019-06-15T02:07:07.451Z,989.89
2019-06-15T02:08:07.445Z,989.93
2019-06-15T02:09:07.422Z,989.91
2019-06-15T02:10:07.407Z,989.90
2019-06-15T02:11:07.431Z,989.86
2019-06-15T02:12:07.435Z,989.90
2019-06-15T02:13:07.381Z,989.88
2019-06-15T02:14:07.367Z,989.82
2019-06-15T02:15:07.377Z,989.77
2019-06-15T02:16:07.349Z,989.78
2019-06-15T02:17:07.354Z,989.75
2019-06-15T02:18:07.340Z,989.72
2019-06-15T02:19:07.305Z,989.70
2019-06-15T02:20:07.337Z,989.67
2019-06-15T02:21:07.294Z,989.69
2019-06-15T02:22:07.299Z,989.73
2019-06-15T02:23:07.261Z,989.69
2019-06-15T02:24:07.252Z,989.77
2019-06-15T02:25:07.263Z,989.73
2019-06-15T02:26:07.246Z,989.79
2019-06-15T02:27:07.237Z,989.84
2019-06-15T02:28:07.229Z,989.88
2019-06-15T02:29:07.190Z,989.82
2019-06-15T02:30:07.188Z,989.83
2019-06-15T02:31:07.222Z,989.82
2019-06-15T02:32:07.154Z,989.82
2019-06-15T02:33:07.210Z,989.79
2019-06-15T02:34:07.138Z,989.78
2019-06-15T02:35:07.126Z,989.81
2019-06-15T02:36:07.135Z,989.80
2019-06-15T02:37:07.168Z,989.76
2019-06-15T02:38:07.091Z,989.83
2019-06-15T02:39:07.085Z,989.81
2019-06-15T02:40:07.070Z,989.84
2019-06-15T02:41:07.052Z,989.86
2019-06-15T02:42:07.072Z,989.92
2019-06-15T02:45:29.464Z,989.85
2019-06-15T02:46:29.454Z,989.86
2019-06-15T02:47:29.469Z,989.88
2019-06-15T02:48:29.468Z,989.91
2019-06-15T02:49:29.434Z,989.92
2019-06-15T02:50:29.429Z,989.89
2019-06-15T02:51:29.428Z,989.87
2019-06-15T02:52:29.443Z,989.88
2019-06-15T02:53:29.404Z,989.81
2019-06-15T02:54:29.385Z,989.83
2019-06-15T02:55:29.361Z,989.83
2019-06-15T02:56:29.371Z,989.81
2019-06-15T02:57:29.370Z,989.78
2019-06-15T02:58:29.333Z,989.78
2019-06-15T02:59:32.231Z,989.81
2019-06-15T03:00:29.325Z,989.83
2019-06-15T03:01:29.291Z,989.91
2019-06-15T03:02:29.308Z,989.90
2019-06-15T03:03:29.305Z,989.94
2019-06-15T03:04:29.258Z,989.93
2019-06-15T03:05:29.269Z,989.89
2019-06-15T03:06:29.236Z,989.90
2019-06-15T03:07:29.224Z,989.87
2019-06-15T03:08:29.210Z,989.88
2019-06-15T03:09:29.222Z,989.80
2019-06-15T03:10:29.196Z,989.76
2019-06-15T03:11:29.243Z,989.73
2019-06-15T03:12:29.173Z,989.75
2019-06-15T03:13:29.211Z,989.73
2019-06-15T03:14:29.152Z,989.73
2019-06-15T03:15:29.138Z,989.70
2019-06-15T03:16:29.121Z,989.63
2019-06-15T03:17:29.112Z,989.61
2019-06-15T03:18:29.149Z,989.63
2019-06-15T03:19:29.115Z,989.65
2019-06-15T03:20:29.142Z,989.66
2019-06-15T03:21:29.091Z,989.63
2019-06-15T03:22:29.106Z,989.61
2019-06-15T03:23:29.045Z,989.62
2019-06-15T03:24:29.061Z,989.64
2019-06-15T03:25:29.018Z,989.72
2019-06-15T03:26:29.048Z,989.71
2019-06-15T03:27:29.040Z,989.72
2019-06-15T03:28:29.018Z,989.81
2019-06-15T03:29:28.996Z,989.80
2019-06-15T03:30:28.973Z,989.84
2019-06-15T03:31:28.967Z,989.85
2019-06-15T03:32:28.952Z,989.86
2019-06-15T03:33:28.964Z,989.81
2019-06-15T03:34:28.920Z,989.75
2019-06-15T03:35:28.987Z,989.68
2019-06-15T03:36:29.213Z,989.63
2019-06-15T03:37:28.892Z,989.65
2019-06-15T03:38:28.884Z,989.59
2019-06-15T03:39:28.882Z,989.63
2019-06-15T03:40:28.908Z,989.57
2019-06-15T03:41:28.863Z,989.54
2019-06-15T03:42:28.830Z,989.56
2019-06-15T03:43:28.847Z,989.60
2019-06-15T03:44:28.819Z,989.57
2019-06-15T03:45:28.813Z,989.61
2019-06-15T03:46:28.793Z,989.60
2019-06-15T03:47:28.814Z,989.56
2019-06-15T03:48:28.829Z,989.56
2019-06-15T03:49:28.751Z,989.50
2019-06-15T03:50:28.749Z,989.54
2019-06-15T03:51:28.737Z,989.57
2019-06-15T03:52:28.721Z,989.60
2019-06-15T03:53:28.758Z,989.64
2019-06-15T03:54:28.719Z,989.65
2019-06-15T03:55:28.694Z,989.61
2019-06-15T03:56:28.715Z,989.56
2019-06-15T03:57:28.668Z,989.49
2019-06-15T03:58:28.696Z,989.45
2019-06-15T03:59:28.644Z,989.49
2019-06-15T04:00:28.636Z,989.59
2019-06-15T04:01:28.634Z,989.52
2019-06-15T04:02:28.635Z,989.54
2019-06-15T04:03:28.629Z,989.55
2019-06-15T04:04:28.594Z,989.54
2019-06-15T04:05:28.583Z,989.52
2019-06-15T04:06:28.570Z,989.54
2019-06-15T04:07:28.555Z,989.47
2019-06-15T04:08:28.630Z,989.44
2019-06-15T04:09:28.533Z,989.33
2019-06-15T04:10:28.519Z,989.27
2019-06-15T04:11:28.506Z,989.22
2019-06-15T04:12:28.496Z,989.16
2019-06-15T04:13:28.634Z,989.15
2019-06-15T04:14:28.474Z,989.14
2019-06-15T04:15:28.486Z,989.19
2019-06-15T04:16:28.456Z,989.23
2019-06-15T04:17:28.440Z,989.14
2019-06-15T04:18:28.432Z,989.11
2019-06-15T04:19:28.443Z,989.14
2019-06-15T04:20:28.431Z,989.15
2019-06-15T04:21:28.395Z,989.16
2019-06-15T04:22:28.385Z,989.09
2019-06-15T04:23:28.374Z,989.06
2019-06-15T04:24:28.389Z,989.01
2019-06-15T04:25:28.351Z,989.04
2019-06-15T04:26:36.053Z,989.10
2019-06-15T04:27:29.328Z,989.06
2019-06-15T04:28:28.317Z,989.04
2019-06-15T04:29:28.325Z,989.07
2019-06-15T04:30:28.296Z,989.11
2019-06-15T04:31:28.285Z,989.11
2019-06-15T04:32:28.273Z,989.14
2019-06-15T04:33:28.290Z,989.15
2019-06-15T04:34:28.251Z,989.14
2019-06-15T04:35:28.240Z,989.15
2019-06-15T04:36:28.253Z,989.19
2019-06-15T04:37:28.235Z,989.19
2019-06-15T04:38:28.208Z,989.22
2019-06-15T04:39:28.195Z,989.21
2019-06-15T04:40:28.186Z,989.19
2019-06-15T04:41:28.207Z,989.19
2019-06-15T04:42:28.198Z,989.16
2019-06-15T04:43:28.152Z,989.17
2019-06-15T04:44:28.140Z,989.19
2019-06-15T04:45:28.162Z,989.17
2019-06-15T04:46:28.190Z,989.16
2019-06-15T04:47:28.145Z,989.17
2019-06-15T04:48:28.108Z,989.18
2019-06-15T04:49:28.086Z,989.13
2019-06-15T04:50:28.107Z,989.09
2019-06-15T04:51:28.066Z,989.10
2019-06-15T04:52:28.065Z,989.10
2019-06-15T04:53:28.083Z,989.10
2019-06-15T04:54:28.032Z,989.01
2019-06-15T04:55:28.092Z,989.01
2019-06-15T04:56:28.030Z,988.94
2019-06-15T04:57:28.006Z,988.93
2019-06-15T04:58:28.027Z,988.89
2019-06-15T04:59:27.992Z,988.88
2019-06-15T05:00:27.989Z,988.86
2019-06-15T05:01:28.000Z,988.82
2019-06-15T05:02:27.945Z,988.79
2019-06-15T05:03:27.952Z,988.83
2019-06-15T05:04:27.956Z,988.80
2019-06-15T05:05:27.921Z,988.81
2019-06-15T05:06:27.937Z,988.81
2019-06-15T05:07:27.891Z,988.87
2019-06-15T05:08:27.883Z,988.86
2019-06-15T05:09:27.948Z,988.85
2019-06-15T05:10:27.854Z,988.86
2019-06-15T05:11:27.867Z,988.87
2019-06-15T05:12:27.840Z,988.90
2019-06-15T05:13:27.828Z,988.92
2019-06-15T05:14:27.814Z,988.90
2019-06-15T05:15:27.805Z,988.87
2019-06-15T05:16:27.815Z,988.87
2019-06-15T05:17:27.786Z,988.88
2019-06-15T05:18:27.767Z,988.90
2019-06-15T05:19:27.775Z,988.88
2019-06-15T05:20:27.796Z,988.90
2019-06-15T05:21:27.738Z,988.88
2019-06-15T05:22:27.720Z,988.93
2019-06-15T05:23:27.715Z,988.91
2019-06-15T05:24:27.701Z,988.85
2019-06-15T05:25:27.718Z,988.83
2019-06-15T05:26:27.699Z,988.80
2019-06-15T05:27:27.685Z,988.75
2019-06-15T05:28:27.666Z,988.75
2019-06-15T05:29:27.676Z,988.79
2019-06-15T05:30:27.639Z,988.82
2019-06-15T05:31:27.634Z,988.84
2019-06-15T05:32:27.615Z,988.89
2019-06-15T05:33:27.608Z,988.87
2019-06-15T05:34:27.615Z,988.89
2019-06-15T05:35:27.579Z,988.90
2019-06-15T05:36:27.622Z,988.88
2019-06-15T05:37:27.556Z,988.92
2019-06-15T05:38:27.552Z,988.94
2019-06-15T05:39:27.559Z,988.92
2019-06-15T05:40:27.531Z,988.90
2019-06-15T05:41:27.550Z,988.89
2019-06-15T05:42:27.507Z,988.91
2019-06-15T05:43:27.493Z,988.93
2019-06-15T05:44:27.511Z,988.94
2019-06-15T05:45:27.492Z,988.96
2019-06-15T05:46:27.456Z,988.92
2019-06-15T05:47:27.469Z,988.93
2019-06-15T05:48:27.442Z,988.97
2019-06-15T05:49:27.425Z,988.99
2019-06-15T05:50:27.466Z,988.94
2019-06-15T05:51:27.401Z,988.89
2019-06-15T05:52:27.404Z,988.86
2019-06-15T05:53:27.457Z,988.85
2019-06-15T05:54:27.377Z,988.87
2019-06-15T05:55:27.386Z,988.91
2019-06-15T05:56:27.348Z,988.93
2019-06-15T05:57:27.366Z,988.91
2019-06-15T05:58:27.323Z,988.95
2019-06-15T05:59:27.325Z,988.97
2019-06-15T06:00:27.326Z,988.97
2019-06-15T06:01:27.308Z,988.98
2019-06-15T06:02:27.285Z,989.01
2019-06-15T06:03:27.286Z,989.00
2019-06-15T06:04:27.269Z,989.09
2019-06-15T06:05:27.280Z,989.06
2019-06-15T06:06:27.237Z,989.06
2019-06-15T06:07:27.229Z,989.08
2019-06-15T06:08:27.214Z,989.09
2019-06-15T06:09:27.213Z,989.09
2019-06-15T06:10:27.218Z,989.16
2019-06-15T06:11:27.185Z,989.14
2019-06-15T06:12:27.189Z,989.10
2019-06-15T06:13:27.163Z,989.12
2019-06-15T06:14:27.146Z,989.16
2019-06-15T06:15:27.182Z,989.20
2019-06-15T06:16:27.153Z,989.20
2019-06-15T06:17:27.133Z,989.18
2019-06-15T06:18:27.116Z,989.24
2019-06-15T06:19:27.096Z,989.18
2019-06-15T06:20:27.080Z,989.22
2019-06-15T06:21:27.093Z,989.20
2019-06-15T06:22:27.064Z,989.24
2019-06-15T06:23:27.049Z,989.19
2019-06-15T06:24:27.094Z,989.16
2019-06-15T06:25:27.044Z,989.15
2019-06-15T06:26:27.042Z,989.11
2019-06-15T06:27:36.153Z,989.16
2019-06-15T06:28:28.037Z,989.19
2019-06-15T06:29:27.031Z,989.17
2019-06-15T06:30:30.138Z,989.17
2019-06-15T06:31:26.985Z,989.16
2019-06-15T06:32:26.948Z,989.21
2019-06-15T06:33:26.959Z,989.16
2019-06-15T06:34:26.975Z,989.13
2019-06-15T06:35:26.915Z,989.18
2019-06-15T06:36:26.927Z,989.17
2019-06-15T06:37:26.893Z,989.20
2019-06-15T06:38:26.884Z,989.20
2019-06-15T06:39:26.895Z,989.25
2019-06-15T06:40:26.909Z,989.31
2019-06-15T06:41:26.853Z,989.33
2019-06-15T06:42:26.840Z,989.32
2019-06-15T06:43:26.857Z,989.35
2019-06-15T06:44:26.816Z,989.41
2019-06-15T06:45:26.809Z,989.35
2019-06-15T06:46:26.823Z,989.37
2019-06-15T06:47:26.813Z,989.38
2019-06-15T06:48:26.772Z,989.40
2019-06-15T06:49:26.761Z,989.37
2019-06-15T06:50:26.750Z,989.44
2019-06-15T06:51:26.767Z,989.44
2019-06-15T06:52:26.728Z,989.43
2019-06-15T06:53:26.719Z,989.40
2019-06-15T06:54:26.706Z,989.35
2019-06-15T06:55:26.696Z,989.40
2019-06-15T06:56:26.712Z,989.42
2019-06-15T06:57:26.674Z,989.45
2019-06-15T06:58:26.677Z,989.48
2019-06-15T06:59:26.652Z,989.44
2019-06-15T07:00:26.643Z,989.45
2019-06-15T07:01:26.653Z,989.45
2019-06-15T07:02:26.620Z,989.40
2019-06-15T07:03:26.637Z,989.47
2019-06-15T07:04:26.602Z,989.42
2019-06-15T07:05:26.589Z,989.43
2019-06-15T07:06:26.577Z,989.44
2019-06-15T07:07:26.564Z,989.44
2019-06-15T07:08:26.575Z,989.48
2019-06-15T07:09:26.546Z,989.52
2019-06-15T07:10:26.560Z,989.54
2019-06-15T07:11:26.522Z,989.57
2019-06-15T07:12:26.537Z,989.64
2019-06-15T07:13:26.527Z,989.60
2019-06-15T07:14:26.496Z,989.61
2019-06-15T07:15:26.514Z,989.65
2019-06-15T07:16:26.469Z,989.67
2019-06-15T07:17:26.484Z,989.71
2019-06-15T07:18:26.477Z,989.79
2019-06-15T07:19:26.437Z,989.80
2019-06-15T07:20:26.452Z,989.80
2019-06-15T07:21:26.427Z,989.80
2019-06-15T07:22:26.405Z,989.85
2019-06-15T07:23:26.422Z,989.82
2019-06-15T07:24:26.409Z,989.84
2019-06-15T07:25:26.372Z,989.86
2019-06-15T07:26:26.382Z,989.85
2019-06-15T07:27:26.351Z,989.86
2019-06-15T07:28:26.381Z,989.93
2019-06-15T07:29:26.329Z,989.88
2019-06-15T07:30:26.318Z,989.80
2019-06-15T07:31:26.306Z,989.84
2019-06-15T07:32:26.297Z,989.85
2019-06-15T07:33:26.410Z,989.82
2019-06-15T07:34:26.300Z,989.83
2019-06-15T07:35:26.275Z,989.82
2019-06-15T07:36:26.254Z,989.82
2019-06-15T07:37:26.246Z,989.82
2019-06-15T07:38:26.236Z,989.87
2019-06-15T07:39:26.269Z,989.87
2019-06-15T07:40:26.218Z,989.93
2019-06-15T07:41:26.201Z,989.95
2019-06-15T07:42:26.189Z,989.92
2019-06-15T07:43:26.183Z,989.95
2019-06-15T07:44:26.223Z,989.94
2019-06-15T07:45:26.164Z,990.02
2019-06-15T07:46:26.155Z,990.04
2019-06-15T07:47:26.138Z,989.98
2019-06-15T07:48:26.125Z,990.05
2019-06-15T07:49:26.141Z,990.00
2019-06-15T07:50:26.148Z,990.02
2019-06-15T07:51:26.110Z,990.09
2019-06-15T07:52:26.085Z,990.05
2019-06-15T07:53:26.075Z,990.11
2019-06-15T07:54:26.064Z,990.10
2019-06-15T07:55:26.092Z,990.15
2019-06-15T07:56:26.042Z,990.17
2019-06-15T07:57:26.031Z,990.15
2019-06-15T07:58:26.021Z,990.20
2019-06-15T07:59:26.009Z,990.29
2019-06-15T08:00:26.023Z,990.29
2019-06-15T08:01:25.989Z,990.23
2019-06-15T08:02:25.984Z,990.24
2019-06-15T08:03:25.974Z,990.27
2019-06-15T08:04:25.991Z,990.28
2019-06-15T08:05:25.958Z,990.27
2019-06-15T08:06:25.934Z,990.34
2019-06-15T08:07:25.949Z,990.34
2019-06-15T08:08:25.916Z,990.31
2019-06-15T08:09:25.926Z,990.35
2019-06-15T08:10:25.893Z,990.39
2019-06-15T08:11:25.880Z,990.43
2019-06-15T08:12:25.917Z,990.41
2019-06-15T08:13:25.915Z,990.36
2019-06-15T08:14:25.853Z,990.41
2019-06-15T08:15:25.839Z,990.52
2019-06-15T08:16:25.857Z,990.42
2019-06-15T08:17:25.846Z,990.39
2019-06-15T08:18:25.831Z,990.31
2019-06-15T08:19:25.796Z,990.29
2019-06-15T08:20:25.784Z,990.33
2019-06-15T08:21:25.778Z,990.34
2019-06-15T08:22:25.794Z,990.43
2019-06-15T08:23:25.754Z,990.42
2019-06-15T08:24:25.742Z,990.43
2019-06-15T08:25:25.732Z,990.49
2019-06-15T08:26:25.749Z,990.51
2019-06-15T08:27:25.710Z,990.55
2019-06-15T08:28:39.597Z,990.59
2019-06-15T08:29:26.692Z,990.61
2019-06-15T08:30:25.682Z,990.63
2019-06-15T08:31:25.700Z,990.61
2019-06-15T08:32:25.683Z,990.66
2019-06-15T08:33:25.673Z,990.71
2019-06-15T08:34:25.640Z,990.76
2019-06-15T08:35:25.625Z,990.81
2019-06-15T08:36:25.616Z,990.83
2019-06-15T08:37:25.631Z,990.83
2019-06-15T08:38:25.622Z,990.84
2019-06-15T08:39:25.694Z,990.78
2019-06-15T08:40:25.572Z,990.77
2019-06-15T08:41:25.605Z,990.80
2019-06-15T08:42:25.551Z,990.83
2019-06-15T08:43:25.540Z,990.96
2019-06-15T08:44:25.645Z,990.98
2019-06-15T08:45:25.520Z,991.03
2019-06-15T08:46:25.576Z,990.99
2019-06-15T08:47:25.505Z,991.05
2019-06-15T08:48:25.516Z,990.98
2019-06-15T08:49:25.477Z,990.96
2019-06-15T08:50:25.471Z,991.00
2019-06-15T08:51:25.483Z,990.99
2019-06-15T08:52:25.447Z,991.01
2019-06-15T08:53:25.486Z,991.06
2019-06-15T08:54:25.497Z,991.00
2019-06-15T08:55:25.414Z,991.05
2019-06-15T08:56:25.408Z,991.03
2019-06-15T08:57:25.393Z,991.06
2019-06-15T08:58:25.414Z,991.09
2019-06-15T08:59:25.417Z,991.06
2019-06-15T09:00:25.483Z,991.11
2019-06-15T09:01:25.352Z,991.16
2019-06-15T09:02:25.380Z,991.18
2019-06-15T09:03:25.332Z,991.14
2019-06-15T09:04:25.319Z,991.20
2019-06-15T09:05:25.345Z,991.20
2019-06-15T09:06:25.335Z,991.22
2019-06-15T09:07:25.291Z,991.21
2019-06-15T09:08:25.277Z,991.18
2019-06-15T09:09:25.267Z,991.22
2019-06-15T09:10:25.275Z,991.28
2019-06-15T09:11:25.277Z,991.21
2019-06-15T09:12:25.234Z,991.25
2019-06-15T09:13:25.227Z,991.19
2019-06-15T09:14:25.224Z,991.23
2019-06-15T09:15:25.205Z,991.22
2019-06-15T09:16:25.870Z,991.15
2019-06-15T09:17:25.185Z,991.16
2019-06-15T09:18:25.173Z,991.17
2019-06-15T09:19:25.204Z,991.17
2019-06-15T09:20:25.152Z,991.20
2019-06-15T09:21:25.161Z,991.24
2019-06-15T09:22:25.135Z,991.34
2019-06-15T09:23:25.123Z,991.39
2019-06-15T09:24:25.115Z,991.32
2019-06-15T09:25:25.100Z,991.22
2019-06-15T09:26:25.128Z,991.30
2019-06-15T09:27:25.081Z,991.26
2019-06-15T09:28:25.073Z,991.30
2019-06-15T09:29:25.059Z,991.28
2019-06-15T09:30:25.078Z,991.29
2019-06-15T09:31:25.039Z,991.24
2019-06-15T09:32:25.070Z,991.31
2019-06-15T09:33:25.016Z,991.32
2019-06-15T09:34:25.004Z,991.25
2019-06-15T09:35:24.995Z,991.25
2019-06-15T09:36:25.011Z,991.32
2019-06-15T09:37:24.975Z,991.32
2019-06-15T09:38:24.963Z,991.37
2019-06-15T09:39:24.952Z,991.36
2019-06-15T09:40:24.971Z,991.40
2019-06-15T09:41:24.931Z,991.43
2019-06-15T09:42:24.919Z,991.44
2019-06-15T09:43:24.911Z,991.46
2019-06-15T09:44:24.897Z,991.50
2019-06-15T09:45:24.916Z,991.46
2019-06-15T09:46:24.878Z,991.51
2019-06-15T09:47:24.868Z,991.46
2019-06-15T09:48:24.857Z,991.48
2019-06-15T09:49:24.850Z,991.49
2019-06-15T09:50:24.862Z,991.54
2019-06-15T09:51:24.833Z,991.53
2019-06-15T09:52:24.813Z,991.52
2019-06-15T09:53:24.880Z,991.56
2019-06-15T09:54:27.911Z,991.61
2019-06-15T09:55:24.783Z,991.60
2019-06-15T09:56:24.774Z,991.64
2019-06-15T09:57:24.761Z,991.60
2019-06-15T09:58:24.797Z,991.64
2019-06-15T09:59:26.381Z,991.59
2019-06-15T10:00:24.728Z,991.61
2019-06-15T10:01:24.742Z,991.68
2019-06-15T10:02:24.712Z,991.68
2019-06-15T10:03:24.762Z,991.73
2019-06-15T10:04:24.684Z,991.73
2019-06-15T10:05:24.679Z,991.75
2019-06-15T10:06:24.713Z,991.76
2019-06-15T10:07:24.656Z,991.86
2019-06-15T10:08:24.665Z,991.85
2019-06-15T10:09:24.632Z,991.86
2019-06-15T10:10:24.619Z,991.89
2019-06-15T10:11:24.612Z,991.97
2019-06-15T10:12:24.598Z,991.90
2019-06-15T10:13:24.616Z,991.91
2019-06-15T10:14:24.576Z,991.95
2019-06-15T10:15:24.620Z,991.88
2019-06-15T10:16:24.603Z,991.92
2019-06-15T10:17:24.544Z,992.00
2019-06-15T10:18:24.535Z,992.06
2019-06-15T10:19:24.522Z,992.07
2019-06-15T10:20:24.564Z,992.09
2019-06-15T10:21:24.527Z,992.11
2019-06-15T10:22:24.492Z,992.10
2019-06-15T10:23:24.481Z,992.14
2019-06-15T10:24:24.469Z,992.16
2019-06-15T10:25:24.458Z,992.22
2019-06-15T10:26:24.489Z,992.24
2019-06-15T10:27:24.438Z,992.30
2019-06-15T10:28:24.506Z,992.38
2019-06-15T10:29:24.416Z,992.34
2019-06-15T10:30:24.403Z,992.38
2019-06-15T10:31:24.420Z,992.49
2019-06-15T10:32:24.390Z,992.43
2019-06-15T10:33:24.463Z,992.44
2019-06-15T10:34:24.361Z,992.54
2019-06-15T10:35:24.349Z,992.58
2019-06-15T10:36:24.340Z,992.54
2019-06-15T10:37:24.329Z,992.51
2019-06-15T10:38:24.343Z,992.57
2019-06-15T10:39:24.307Z,992.59
2019-06-15T10:40:24.333Z,992.63
2019-06-15T10:41:24.287Z,992.57
2019-06-15T10:42:24.302Z,992.62
2019-06-15T10:43:24.304Z,992.63
2019-06-15T10:44:24.320Z,992.66
2019-06-15T10:45:24.264Z,992.63
2019-06-15T10:46:24.694Z,992.60
2019-06-15T10:47:24.247Z,992.61
2019-06-15T10:48:24.211Z,992.54
2019-06-15T10:49:24.211Z,992.54
2019-06-15T10:50:24.212Z,992.59
2019-06-15T10:51:24.191Z,992.60
2019-06-15T10:52:24.170Z,992.61
2019-06-15T10:53:24.215Z,992.67
2019-06-15T10:54:24.154Z,992.71
2019-06-15T10:55:24.163Z,992.72
2019-06-15T10:56:24.134Z,992.72
2019-06-15T10:57:24.121Z,992.73
2019-06-15T10:58:24.174Z,992.75
2019-06-15T10:59:24.814Z,992.72
2019-06-15T11:00:24.117Z,992.76
2019-06-15T11:01:24.125Z,992.76
2019-06-15T11:02:24.061Z,992.75
2019-06-15T11:03:24.052Z,992.84
2019-06-15T11:04:24.053Z,992.82
2019-06-15T11:05:24.068Z,992.86
2019-06-15T11:06:24.068Z,992.87
2019-06-15T11:07:24.010Z,992.90
2019-06-15T11:08:23.996Z,992.77
2019-06-15T11:09:23.993Z,992.87
2019-06-15T11:10:24.006Z,992.77
2019-06-15T11:11:23.972Z,992.87
2019-06-15T11:12:23.979Z,992.87
2019-06-15T11:13:24.027Z,992.87
2019-06-15T11:14:24.030Z,992.85
2019-06-15T11:15:23.932Z,992.83
2019-06-15T11:16:23.935Z,992.85
2019-06-15T11:17:23.902Z,992.97
2019-06-15T11:18:23.897Z,993.02
2019-06-15T11:19:23.881Z,992.91
2019-06-15T11:20:23.872Z,992.94
2019-06-15T11:21:23.897Z,992.99
2019-06-15T11:22:23.852Z,992.98
2019-06-15T11:23:23.857Z,992.96
2019-06-15T11:24:23.826Z,993.02
2019-06-15T11:25:23.818Z,993.03
2019-06-15T11:26:23.864Z,993.05
2019-06-15T11:27:23.796Z,993.01
2019-06-15T11:28:23.785Z,993.10
2019-06-15T11:29:23.773Z,993.15
2019-06-15T11:30:23.764Z,993.19
2019-06-15T11:31:23.788Z,993.15
2019-06-15T11:32:23.742Z,993.15
2019-06-15T11:33:23.749Z,993.14
2019-06-15T11:34:23.757Z,993.16
2019-06-15T11:35:23.750Z,993.24
2019-06-15T11:36:23.697Z,993.21
2019-06-15T11:37:23.686Z,993.28
2019-06-15T11:38:23.676Z,993.32
2019-06-15T11:39:23.702Z,993.28
2019-06-15T11:40:23.653Z,993.34
2019-06-15T11:41:23.645Z,993.38
2019-06-15T11:42:23.634Z,993.36
2019-06-15T11:43:23.621Z,993.42
2019-06-15T11:44:23.639Z,993.45
2019-06-15T11:45:23.600Z,993.43
2019-06-15T11:46:23.652Z,993.46
2019-06-15T11:47:23.580Z,993.39
2019-06-15T11:48:23.570Z,993.43
2019-06-15T11:49:23.587Z,993.37
2019-06-15T11:50:23.574Z,993.43
2019-06-15T11:51:23.544Z,993.45
2019-06-15T11:52:23.525Z,993.39
2019-06-15T11:53:23.522Z,993.37
2019-06-15T11:54:23.512Z,993.39
2019-06-15T11:55:36.161Z,993.40
2019-06-15T11:56:24.503Z,993.42
2019-06-15T11:57:23.471Z,993.41
2019-06-15T11:58:23.462Z,993.34
2019-06-15T11:59:23.450Z,993.38
2019-06-15T12:00:31.100Z,993.42
2019-06-15T12:01:24.427Z,993.32
2019-06-15T12:02:23.417Z,993.32
2019-06-15T12:03:23.409Z,993.33
2019-06-15T12:04:23.394Z,993.29
2019-06-15T12:05:23.421Z,993.27
2019-06-15T12:06:23.391Z,993.33
2019-06-15T12:07:23.365Z,993.36
2019-06-15T12:08:23.384Z,993.35
2019-06-15T12:09:23.401Z,993.37
2019-06-15T12:10:23.344Z,993.39
2019-06-15T12:11:23.324Z,993.44
2019-06-15T12:12:23.334Z,993.42
2019-06-15T12:13:23.938Z,993.47
2019-06-15T12:14:23.312Z,993.49
2019-06-15T12:15:23.310Z,993.52
2019-06-15T12:16:23.265Z,993.49
2019-06-15T12:17:23.272Z,993.46
2019-06-15T12:18:23.271Z,993.42
2019-06-15T12:19:23.237Z,993.47
2019-06-15T12:20:23.231Z,993.51
2019-06-15T12:21:23.215Z,993.47
2019-06-15T12:22:23.229Z,993.50
2019-06-15T12:23:23.247Z,993.53
2019-06-15T12:24:23.199Z,993.48
2019-06-15T12:25:23.264Z,993.51
2019-06-15T12:26:23.164Z,993.54
2019-06-15T12:27:23.202Z,993.55
2019-06-15T12:28:23.138Z,993.58
2019-06-15T12:29:23.126Z,993.55
2019-06-15T12:30:23.158Z,993.52